Terminal Aerodrome Forecast
Issued by NWS El Paso, TX

Home | Current Version | Previous Version | Text Only | Print | Product List | Glossary On
Versions: 1 2 3 4 5 6 7 8 9 10 11 12 13
000
FTUS44 KEPZ 061137
TAFELP
TAF
KELP 061137Z 0612/0712 17010KT P6SM SCT250
     FM061700 21013G23KT P6SM FEW100
     FM062100 24018G28KT P6SM FEW100
     FM070400 24012G20KT P6SM SCT100=

USA.gov is the U.S. government's official web portal to all federal, state and local government web resources and services.